This is the latest recevied weather packets stored in our database for station/object M0HPP-13. If no packets are shown the sender has not sent any weather packets the latest 10 day(s).
| Time | Temp. | Humidity | Pressure | Rain* | Wind** | Luminosity | Snow |
|---|---|---|---|---|---|---|---|
| 1778313929 | 10° C | 56% | 1024.1 hPa | 0 mm | - | 244 W/m² | - |
| 1778313329 | 10° C | 56% | 1024.2 hPa | 0 mm | - | 286 W/m² | - |
| 1778312729 | 10° C | 58% | 1024.2 hPa | 0 mm | - | 282 W/m² | - |
| 1778312129 | 9.44° C | 60% | 1024.1 hPa | 0 mm | - | 253 W/m² | - |
| 1778311529 | 8.89° C | 63% | 1024.1 hPa | 0 mm | - | 236 W/m² | - |
| 1778310929 | 8.89° C | 63% | 1024.1 hPa | 0 mm | - | 199 W/m² | - |
| 1778310329 | 8.33° C | 70% | 1024 hPa | 0 mm | - | 161 W/m² | - |
| 1778309729 | 6.67° C | 74% | 1024 hPa | 0 mm | - | 118 W/m² | - |
| 1778309129 | 6.11° C | 74% | 1024 hPa | 0 mm | - | 75 W/m² | - |
| 1778308529 | 7.78° C | 68% | 1023.8 hPa | 0 mm | - | 63 W/m² | - |
| 1778307929 | 7.22° C | 72% | 1023.7 hPa | 0 mm | - | 117 W/m² | - |
| 1778307329 | 6.67° C | 76% | 1023.5 hPa | 0 mm | - | 116 W/m² | - |
| 1778306729 | 5.56° C | 81% | 1023.6 hPa | 0 mm | - | 115 W/m² | - |
| 1778306129 | 5° C | 82% | 1023.7 hPa | 0 mm | - | 90 W/m² | - |
| 1778305529 | 4.44° C | 84% | 1023.6 hPa | 0 mm | - | 79 W/m² | - |
| 1778304929 | 3.89° C | 90% | 1023.5 hPa | 0 mm | - | 47 W/m² | - |
| 1778304329 | 2.78° C | 93% | 1023.4 hPa | 0 mm | - | 43 W/m² | - |
| 1778303729 | 1.67° C | 95% | 1023.3 hPa | 0 mm | - | 41 W/m² | - |
| 1778303129 | 1.67° C | 95% | 1023.3 hPa | 0 mm | - | 28 W/m² | - |
| 1778302529 | 1.67° C | 96% | 1023.2 hPa | 0 mm | - | 20 W/m² | - |
| 1778301929 | 1.11° C | 96% | 1023.2 hPa | 0 mm | - | 14 W/m² | - |
| 1778301329 | 1.11° C | 96% | 1023.1 hPa | 0 mm | - | 9 W/m² | - |
| 1778300729 | 1.11° C | 96% | 1023 hPa | 0 mm | - | 6 W/m² | - |
| 1778300129 | 1.11° C | 96% | 1022.9 hPa | 0 mm | - | 3 W/m² | - |
| 1778299529 | 0.56° C | 96% | 1023.1 hPa | 0 mm | - | 2 W/m² | - |
* Rain latest hour (hover to see other rain measurements)
** Current wind speed in m/s (hover to see current wind gust speed)